Time;durP1;ratioP1;P1;durP2;ratioP2;P2;SDS_P1;SDS_P2;PMS_P1;PMS_P2;Temp;Humidity;BMP_temperature;BMP_pressure;BME280_temperature;BME280_humidity;BME280_pressure;Samples;Min_cycle;Max_cycle;Signal;HPM_P1;HPM_P2
2022/01/24 00:00:29;;;;;;;20.45;15.40;;;;;;;;;;5131771;28;20039;-63
2022/01/24 00:02:55;;;;;;;23.23;15.55;;;;;;;;;;5113200;28;20043;-63
2022/01/24 00:05:21;;;;;;;20.15;15.05;;;;;;;;;;5131592;28;20043;-63
2022/01/24 00:07:47;;;;;;;23.45;16.02;;;;;;;;;;5113693;28;20054;-63
2022/01/24 00:10:18;;;;;;;25.20;15.48;;;;;;;;;;5097000;28;20229;-63
2022/01/24 00:12:58;;;;;;;23.40;16.65;;;;;;;;;;5113190;28;20066;-64
2022/01/24 00:18:25;;;;;;;22.75;15.52;;;;;;;;;;5132404;28;20107;-65
2022/01/24 00:26:45;;;;;;;24.02;17.40;;;;;;;;;;5131864;28;20047;-64
2022/01/24 00:29:11;;;;;;;23.00;15.98;;;;;;;;;;5132604;28;20122;-63
2022/01/24 00:31:37;;;;;;;25.05;16.05;;;;;;;;;;5132249;28;20039;-63
2022/01/24 00:34:04;;;;;;;20.70;15.10;;;;;;;;;;5132581;28;20058;-62
2022/01/24 00:36:31;;;;;;;23.10;15.38;;;;;;;;;;5113664;28;20067;-62
2022/01/24 00:38:57;;;;;;;21.77;15.75;;;;;;;;;;5132120;28;20131;-63
2022/01/24 00:41:24;;;;;;;20.70;13.70;;;;;;;;;;5132077;28;20043;-63
2022/01/24 00:44:12;;;;;;;20.58;14.25;;;;;;;;;;5132331;28;20043;-62
2022/01/24 00:46:43;;;;;;;21.27;14.73;;;;;;;;;;5131714;28;20050;-65
2022/01/24 00:49:23;;;;;;;20.13;13.52;;;;;;;;;;5133572;27;20054;-65
2022/01/24 00:57:03;;;;;;;19.67;13.13;;;;;;;;;;5135912;27;20399;-64
2022/01/24 00:59:29;;;;;;;19.05;13.40;;;;;;;;;;5135681;27;20046;-64
2022/01/24 01:01:55;;;;;;;17.80;12.50;;;;;;;;;;5136749;27;20386;-65
2022/01/24 01:04:27;;;;;;;16.38;11.88;;;;;;;;;;5137299;27;20070;-66
2022/01/24 01:06:54;;;;;;;18.83;12.60;;;;;;;;;;5136157;27;20503;-64
2022/01/24 01:20:25;;;;;;;18.15;12.60;;;;;;;;;;5135791;27;20044;-64
2022/01/24 01:22:51;;;;;;;17.60;12.50;;;;;;;;;;5134921;27;20074;-64
2022/01/24 01:25:17;;;;;;;19.40;12.85;;;;;;;;;;5117002;27;20047;-64
2022/01/24 01:27:46;;;;;;;17.27;12.48;;;;;;;;;;5135128;27;20499;-64
2022/01/24 01:30:20;;;;;;;16.35;11.25;;;;;;;;;;5135057;27;20054;-63
2022/01/24 01:56:30;;;;;;;15.60;12.15;;;;;;;;;;5134995;27;20404;-63
2022/01/24 01:58:56;;;;;;;17.50;12.20;;;;;;;;;;5134965;27;20039;-63
2022/01/24 02:01:22;;;;;;;16.40;11.98;;;;;;;;;;5133999;27;20304;-64
2022/01/24 02:03:50;;;;;;;17.67;12.50;;;;;;;;;;5134886;27;20354;-63
2022/01/24 02:06:16;;;;;;;16.20;11.52;;;;;;;;;;5134823;27;20218;-64
2022/01/24 02:08:42;;;;;;;16.85;11.82;;;;;;;;;;5134802;27;20036;-63
2022/01/24 02:11:11;;;;;;;17.38;12.40;;;;;;;;;;5114917;27;20054;-64
2022/01/24 02:13:37;;;;;;;15.05;11.27;;;;;;;;;;5134121;27;20400;-63
2022/01/24 02:21:41;;;;;;;15.23;11.10;;;;;;;;;;5098141;27;20112;-64
2022/01/24 02:24:09;;;;;;;19.27;12.98;;;;;;;;;;5124989;27;20043;-64
2022/01/24 02:26:35;;;;;;;17.48;12.45;;;;;;;;;;5126318;27;20043;-63
2022/01/24 02:33:56;;;;;;;15.38;11.68;;;;;;;;;;5134040;27;20047;-66
2022/01/24 02:36:24;;;;;;;17.35;12.57;;;;;;;;;;5134264;27;20031;-64
2022/01/24 02:39:36;;;;;;;17.17;12.98;;;;;;;;;;5134703;27;20369;-63
2022/01/24 02:50:43;;;;;;;17.67;12.35;;;;;;;;;;5134040;27;20150;-63
2022/01/24 02:53:09;;;;;;;19.02;12.77;;;;;;;;;;5133333;27;20130;-63
2022/01/24 02:55:36;;;;;;;19.25;13.13;;;;;;;;;;5133541;27;20376;-64
2022/01/24 02:58:02;;;;;;;18.30;13.02;;;;;;;;;;5115208;27;20509;-63
2022/01/24 03:00:28;;;;;;;17.77;12.50;;;;;;;;;;5115007;27;20042;-64
2022/01/24 03:02:54;;;;;;;21.17;13.60;;;;;;;;;;5133076;27;20061;-65
2022/01/24 03:05:20;;;;;;;18.38;12.98;;;;;;;;;;5133422;27;20047;-65
2022/01/24 03:07:46;;;;;;;20.55;13.48;;;;;;;;;;5133456;27;20122;-65
2022/01/24 03:10:23;;;;;;;22.88;12.82;;;;;;;;;;5133341;27;20035;-64
2022/01/24 03:12:58;;;;;;;18.00;12.75;;;;;;;;;;5113363;27;20051;-64
2022/01/24 03:15:24;;;;;;;22.10;13.02;;;;;;;;;;5133346;27;20066;-64
2022/01/24 03:17:50;;;;;;;21.13;13.77;;;;;;;;;;5133126;27;20043;-64
2022/01/24 03:20:17;;;;;;;17.40;12.90;;;;;;;;;;5132935;27;20042;-65
2022/01/24 03:22:43;;;;;;;20.13;13.98;;;;;;;;;;5114086;27;20039;-65
2022/01/24 03:25:09;;;;;;;20.20;13.65;;;;;;;;;;5132978;27;20129;-65
2022/01/24 03:27:35;;;;;;;20.75;14.73;;;;;;;;;;5132271;27;20039;-65
2022/01/24 03:30:01;;;;;;;19.85;14.52;;;;;;;;;;5133121;27;20047;-65
2022/01/24 03:32:27;;;;;;;19.77;14.40;;;;;;;;;;5132573;27;20039;-65
2022/01/24 03:34:53;;;;;;;21.63;15.02;;;;;;;;;;5132641;27;20031;-65
2022/01/24 03:37:20;;;;;;;22.00;14.90;;;;;;;;;;5132864;27;20144;-65
2022/01/24 03:39:46;;;;;;;22.77;15.32;;;;;;;;;;5133021;27;20487;-65
2022/01/24 03:42:12;;;;;;;18.50;14.07;;;;;;;;;;5131990;27;20035;-65
2022/01/24 03:44:38;;;;;;;20.08;14.07;;;;;;;;;;5132419;27;20054;-65
2022/01/24 03:47:30;;;;;;;20.88;15.15;;;;;;;;;;5132626;27;20114;-65
2022/01/24 03:49:57;;;;;;;20.67;14.57;;;;;;;;;;5132481;27;20510;-65
2022/01/24 03:52:23;;;;;;;21.05;14.93;;;;;;;;;;5132241;27;20039;-64
2022/01/24 03:54:49;;;;;;;22.20;15.57;;;;;;;;;;5132930;27;20053;-64
2022/01/24 03:57:17;;;;;;;20.20;13.63;;;;;;;;;;5132717;27;20043;-64
2022/01/24 03:59:43;;;;;;;20.30;14.30;;;;;;;;;;5132223;27;20188;-65
2022/01/24 04:02:09;;;;;;;22.40;15.45;;;;;;;;;;5132076;28;20043;-65
2022/01/24 04:04:36;;;;;;;21.15;14.85;;;;;;;;;;5132449;28;20039;-65
2022/01/24 04:07:02;;;;;;;23.67;15.50;;;;;;;;;;5132170;28;20046;-65
2022/01/24 04:09:28;;;;;;;20.42;14.30;;;;;;;;;;5114311;28;20050;-65
2022/01/24 04:11:57;;;;;;;19.17;14.55;;;;;;;;;;5113251;28;20078;-64
2022/01/24 04:14:34;;;;;;;20.35;14.68;;;;;;;;;;5132599;28;20074;-65
2022/01/24 04:17:45;;;;;;;21.67;14.75;;;;;;;;;;5132544;28;20100;-65
2022/01/24 04:22:32;;;;;;;23.58;16.15;;;;;;;;;;5133416;27;20071;-65
2022/01/24 04:25:00;;;;;;;25.50;16.88;;;;;;;;;;5136101;27;20074;-65
2022/01/24 04:27:27;;;;;;;22.58;14.90;;;;;;;;;;5101073;27;20046;-65
2022/01/24 04:29:54;;;;;;;23.95;16.77;;;;;;;;;;5135254;27;20039;-65
2022/01/24 04:32:20;;;;;;;20.73;14.55;;;;;;;;;;5135940;27;20043;-65
2022/01/24 04:34:46;;;;;;;22.38;15.30;;;;;;;;;;5117968;27;20039;-64
2022/01/24 04:37:13;;;;;;;21.20;15.80;;;;;;;;;;5136102;27;20124;-65
2022/01/24 04:39:39;;;;;;;22.80;15.65;;;;;;;;;;5136101;27;20448;-65
2022/01/24 04:42:13;;;;;;;22.20;15.50;;;;;;;;;;5135715;27;20092;-65
2022/01/24 04:44:55;;;;;;;21.52;14.57;;;;;;;;;;5136026;27;20428;-65
2022/01/24 04:47:31;;;;;;;24.35;16.38;;;;;;;;;;5136278;27;20043;-65
2022/01/24 04:52:58;;;;;;;22.63;15.48;;;;;;;;;;5135560;27;20139;-64
2022/01/24 04:55:24;;;;;;;21.80;16.55;;;;;;;;;;5117766;27;20556;-65
2022/01/24 04:57:50;;;;;;;23.15;15.68;;;;;;;;;;5135864;27;20032;-65
2022/01/24 05:00:16;;;;;;;20.92;14.35;;;;;;;;;;5136275;27;20035;-65
2022/01/24 05:02:42;;;;;;;23.48;15.88;;;;;;;;;;5135510;27;20042;-65
2022/01/24 05:05:13;;;;;;;22.42;15.52;;;;;;;;;;5135720;27;20047;-65
2022/01/24 05:07:39;;;;;;;22.02;14.43;;;;;;;;;;5135764;27;20055;-65
2022/01/24 05:10:30;;;;;;;25.67;15.52;;;;;;;;;;5135603;27;20035;-65
2022/01/24 05:23:55;;;;;;;42.30;24.48;;;;;;;;;;5135109;27;20044;-65
2022/01/24 05:26:21;;;;;;;47.92;27.83;;;;;;;;;;5116626;27;20473;-65
2022/01/24 05:28:47;;;;;;;44.25;26.20;;;;;;;;;;5135379;27;20535;-65
2022/01/24 05:31:13;;;;;;;43.88;26.30;;;;;;;;;;5134855;27;20035;-65
2022/01/24 05:33:39;;;;;;;42.97;25.83;;;;;;;;;;5129434;27;20035;-65
2022/01/24 05:36:05;;;;;;;41.55;25.77;;;;;;;;;;5128452;27;20126;-65
2022/01/24 05:38:31;;;;;;;43.33;25.73;;;;;;;;;;5135017;27;20041;-65
2022/01/24 05:40:58;;;;;;;48.85;30.70;;;;;;;;;;5134430;27;20065;-64
2022/01/24 05:43:24;;;;;;;53.50;30.02;;;;;;;;;;5134091;27;20559;-65
2022/01/24 05:45:50;;;;;;;57.08;32.92;;;;;;;;;;5134790;27;20039;-65
2022/01/24 05:48:16;;;;;;;53.75;32.58;;;;;;;;;;5128166;27;20031;-65
2022/01/24 05:50:42;;;;;;;57.35;31.23;;;;;;;;;;5134482;27;20039;-64
2022/01/24 05:53:08;;;;;;;53.65;30.83;;;;;;;;;;5133478;27;20039;-65
2022/01/24 05:55:34;;;;;;;56.10;32.55;;;;;;;;;;5134441;27;20039;-65
2022/01/24 05:58:01;;;;;;;43.97;27.10;;;;;;;;;;5134862;27;20395;-65
2022/01/24 06:00:27;;;;;;;57.17;32.45;;;;;;;;;;5131569;27;20186;-65
2022/01/24 06:02:53;;;;;;;55.95;32.13;;;;;;;;;;5132294;27;20541;-65
2022/01/24 06:05:20;;;;;;;53.20;30.25;;;;;;;;;;5135447;27;20074;-65
2022/01/24 06:07:48;;;;;;;52.70;30.80;;;;;;;;;;5135205;27;20039;-64
2022/01/24 06:10:14;;;;;;;54.67;31.20;;;;;;;;;;5134624;27;20483;-65
2022/01/24 06:12:40;;;;;;;50.00;29.58;;;;;;;;;;5133694;27;20118;-64
2022/01/24 06:15:06;;;;;;;57.20;31.85;;;;;;;;;;5134048;27;20429;-65
2022/01/24 06:17:32;;;;;;;51.28;31.38;;;;;;;;;;5134208;27;20035;-64
2022/01/24 06:19:58;;;;;;;56.45;32.80;;;;;;;;;;5134667;27;20438;-64
2022/01/24 06:22:24;;;;;;;53.65;30.83;;;;;;;;;;5098913;27;20080;-65
2022/01/24 06:24:50;;;;;;;53.95;29.25;;;;;;;;;;5134636;27;20414;-65
2022/01/24 06:27:16;;;;;;;52.63;30.25;;;;;;;;;;5133997;27;20091;-64
2022/01/24 06:29:42;;;;;;;57.42;32.15;;;;;;;;;;5133800;27;20043;-64
2022/01/24 06:32:08;;;;;;;52.55;30.40;;;;;;;;;;5133784;27;20043;-64
2022/01/24 06:34:36;;;;;;;55.33;31.42;;;;;;;;;;5134059;27;20050;-64
2022/01/24 06:37:03;;;;;;;56.10;30.33;;;;;;;;;;5133784;27;20521;-63
2022/01/24 06:39:29;;;;;;;54.10;30.30;;;;;;;;;;5133529;27;20095;-64
2022/01/24 06:42:21;;;;;;;56.88;32.65;;;;;;;;;;5115085;27;20487;-64
2022/01/24 06:44:45;;;;;;;55.72;31.25;;;;;;;;;;5114758;27;20047;-64
2022/01/24 06:47:11;;;;;;;59.60;32.50;;;;;;;;;;5133097;27;20035;-64
2022/01/24 06:49:37;;;;;;;58.78;31.27;;;;;;;;;;5133620;27;20126;-65
2022/01/24 06:52:06;;;;;;;57.25;32.00;;;;;;;;;;5133827;27;20403;-65
2022/01/24 06:54:32;;;;;;;59.50;35.35;;;;;;;;;;5133372;27;20043;-63
2022/01/24 06:56:58;;;;;;;56.28;33.47;;;;;;;;;;5133418;27;20043;-65
2022/01/24 06:59:24;;;;;;;59.40;35.47;;;;;;;;;;5133890;27;20046;-64
2022/01/24 07:01:50;;;;;;;62.20;34.88;;;;;;;;;;5133166;27;20123;-64
2022/01/24 07:04:16;;;;;;;62.50;37.15;;;;;;;;;;5114845;27;20043;-63
2022/01/24 07:06:42;;;;;;;59.30;33.78;;;;;;;;;;5133511;27;20129;-65
2022/01/24 07:09:09;;;;;;;61.78;35.45;;;;;;;;;;5114915;27;20049;-63
2022/01/24 07:11:35;;;;;;;64.13;35.58;;;;;;;;;;5119561;27;20043;-64
2022/01/24 07:14:05;;;;;;;62.25;35.65;;;;;;;;;;5120589;27;20032;-64
2022/01/24 07:16:49;;;;;;;60.13;34.38;;;;;;;;;;5104785;27;20051;-64
2022/01/24 07:19:15;;;;;;;62.90;35.08;;;;;;;;;;5124942;27;20506;-65
2022/01/24 07:21:41;;;;;;;64.90;38.50;;;;;;;;;;5120448;27;20488;-64
2022/01/24 07:24:07;;;;;;;66.80;38.78;;;;;;;;;;5098922;28;20485;-66
2022/01/24 07:26:33;;;;;;;65.63;37.88;;;;;;;;;;5130268;27;20039;-63
2022/01/24 07:28:59;;;;;;;66.45;38.28;;;;;;;;;;5112963;27;20051;-63
2022/01/24 07:31:25;;;;;;;64.90;37.63;;;;;;;;;;5132036;27;20035;-64
2022/01/24 07:33:51;;;;;;;67.47;39.10;;;;;;;;;;5132932;27;20126;-64
2022/01/24 07:36:17;;;;;;;64.25;38.17;;;;;;;;;;5113359;27;20042;-64
2022/01/24 07:38:43;;;;;;;65.45;36.22;;;;;;;;;;5132112;27;20378;-64
2022/01/24 07:41:09;;;;;;;62.85;36.47;;;;;;;;;;5114558;27;20493;-63
2022/01/24 07:43:35;;;;;;;68.78;38.97;;;;;;;;;;5132983;27;20039;-64
2022/01/24 07:46:02;;;;;;;66.22;36.70;;;;;;;;;;5128633;27;20035;-64
2022/01/24 07:48:28;;;;;;;65.28;37.95;;;;;;;;;;5125930;27;20059;-66
2022/01/24 07:50:54;;;;;;;67.28;39.72;;;;;;;;;;5125343;27;20035;-65
2022/01/24 07:53:22;;;;;;;69.55;40.53;;;;;;;;;;5131186;27;20138;-66
2022/01/24 07:55:49;;;;;;;72.03;39.40;;;;;;;;;;5132171;27;20081;-66
2022/01/24 07:58:15;;;;;;;71.80;39.63;;;;;;;;;;5131876;27;20058;-66
2022/01/24 08:00:41;;;;;;;76.57;41.55;;;;;;;;;;5114346;27;20071;-65
2022/01/24 08:03:07;;;;;;;62.38;37.42;;;;;;;;;;5131917;27;20384;-65
2022/01/24 08:05:34;;;;;;;71.60;38.92;;;;;;;;;;5129665;28;20100;-65
2022/01/24 08:08:01;;;;;;;76.35;40.08;;;;;;;;;;5132781;28;20091;-66
2022/01/24 08:10:27;;;;;;;69.32;36.70;;;;;;;;;;5128765;28;20136;-66
2022/01/24 08:12:53;;;;;;;73.68;40.63;;;;;;;;;;5131364;28;20031;-65
2022/01/24 08:15:19;;;;;;;71.78;38.65;;;;;;;;;;5126034;28;20621;-66
2022/01/24 08:17:45;;;;;;;70.05;39.75;;;;;;;;;;5132489;28;20027;-66
2022/01/24 08:20:12;;;;;;;76.00;40.67;;;;;;;;;;5113773;28;20035;-66
2022/01/24 08:22:38;;;;;;;74.68;41.58;;;;;;;;;;5131553;28;20129;-65
2022/01/24 08:25:05;;;;;;;70.30;38.63;;;;;;;;;;5131268;28;20198;-66
2022/01/24 08:27:31;;;;;;;71.97;40.78;;;;;;;;;;5131697;28;20084;-65
2022/01/24 08:29:57;;;;;;;74.57;41.42;;;;;;;;;;5128540;28;20031;-64
2022/01/24 08:32:24;;;;;;;72.28;41.88;;;;;;;;;;5130855;28;20106;-66
2022/01/24 08:34:50;;;;;;;71.93;40.00;;;;;;;;;;5131654;28;20054;-65
2022/01/24 08:37:16;;;;;;;74.25;42.53;;;;;;;;;;5132220;28;20388;-65
2022/01/24 08:39:44;;;;;;;74.40;41.65;;;;;;;;;;5132446;28;20035;-65
2022/01/24 08:42:18;;;;;;;76.80;43.42;;;;;;;;;;5131980;28;20095;-65
2022/01/24 08:47:27;;;;;;;75.07;42.45;;;;;;;;;;5132027;28;20127;-64
2022/01/24 08:49:53;;;;;;;72.18;41.92;;;;;;;;;;5131083;28;20042;-63
2022/01/24 08:52:20;;;;;;;67.32;37.97;;;;;;;;;;5131122;28;20077;-63
2022/01/24 08:54:46;;;;;;;67.00;37.75;;;;;;;;;;5131549;28;20130;-63
2022/01/24 08:57:13;;;;;;;67.63;38.85;;;;;;;;;;5131824;28;20061;-66
2022/01/24 08:59:39;;;;;;;68.47;37.10;;;;;;;;;;5131345;28;20039;-63
2022/01/24 09:02:06;;;;;;;63.47;36.65;;;;;;;;;;5131832;28;20062;-64
2022/01/24 09:04:32;;;;;;;63.58;36.65;;;;;;;;;;5131227;28;20035;-63
2022/01/24 09:07:04;;;;;;;68.25;37.30;;;;;;;;;;5127534;28;20121;-63
2022/01/24 09:09:31;;;;;;;62.88;36.75;;;;;;;;;;5124965;27;20407;-63
2022/01/24 09:11:57;;;;;;;61.22;37.17;;;;;;;;;;5130659;27;20035;-64
2022/01/24 09:14:23;;;;;;;57.03;34.08;;;;;;;;;;5130100;27;20118;-63
2022/01/24 09:16:49;;;;;;;55.88;33.83;;;;;;;;;;5134468;27;20483;-63
2022/01/24 09:19:15;;;;;;;56.72;34.08;;;;;;;;;;5134905;27;20040;-63
2022/01/24 09:21:41;;;;;;;58.03;34.88;;;;;;;;;;5130068;27;20039;-64
2022/01/24 09:24:07;;;;;;;58.08;34.85;;;;;;;;;;5128568;27;20031;-64
2022/01/24 09:26:34;;;;;;;56.50;34.55;;;;;;;;;;5125805;27;20057;-64
2022/01/24 09:29:00;;;;;;;55.70;34.17;;;;;;;;;;5134081;27;20035;-64
2022/01/24 09:31:26;;;;;;;57.42;35.05;;;;;;;;;;5134303;27;20495;-64
2022/01/24 09:33:53;;;;;;;56.00;36.05;;;;;;;;;;5134883;27;20035;-64
2022/01/24 09:36:19;;;;;;;54.42;34.67;;;;;;;;;;5133548;27;20091;-63
2022/01/24 09:38:45;;;;;;;53.00;33.65;;;;;;;;;;5134841;27;20118;-64
2022/01/24 09:41:13;;;;;;;53.30;34.03;;;;;;;;;;5134118;27;20037;-64
2022/01/24 09:43:39;;;;;;;51.70;33.42;;;;;;;;;;5132834;27;20055;-64
2022/01/24 09:46:05;;;;;;;51.92;34.15;;;;;;;;;;5130866;27;20062;-65
2022/01/24 09:48:33;;;;;;;59.17;35.08;;;;;;;;;;5129691;27;20077;-65
2022/01/24 09:50:59;;;;;;;57.47;34.00;;;;;;;;;;5127454;27;20523;-65
2022/01/24 09:53:27;;;;;;;55.75;35.08;;;;;;;;;;5132316;27;20391;-64
2022/01/24 09:55:53;;;;;;;57.65;34.92;;;;;;;;;;5132343;27;20504;-65
2022/01/24 09:58:20;;;;;;;51.95;35.67;;;;;;;;;;5133648;27;20476;-65
2022/01/24 10:00:47;;;;;;;55.58;36.00;;;;;;;;;;5134517;27;20039;-65
2022/01/24 10:03:13;;;;;;;54.50;34.00;;;;;;;;;;5134262;27;20043;-65
2022/01/24 10:05:42;;;;;;;57.00;36.10;;;;;;;;;;5133607;27;20050;-63
2022/01/24 10:08:13;;;;;;;56.70;35.78;;;;;;;;;;5131729;27;20400;-65
2022/01/24 10:10:45;;;;;;;63.17;39.05;;;;;;;;;;5132141;27;20042;-65
2022/01/24 10:16:31;;;;;;;62.90;40.10;;;;;;;;;;5128978;27;20065;-64
2022/01/24 10:19:01;;;;;;;62.28;38.40;;;;;;;;;;5133707;27;20345;-65
2022/01/24 10:21:28;;;;;;;58.83;36.17;;;;;;;;;;5125824;27;20472;-65
2022/01/24 10:23:55;;;;;;;55.92;38.55;;;;;;;;;;5131621;27;20035;-64
2022/01/24 10:26:21;;;;;;;51.67;34.88;;;;;;;;;;5133959;27;20437;-66
2022/01/24 10:28:49;;;;;;;55.67;35.28;;;;;;;;;;5131387;27;20085;-64
2022/01/24 10:31:17;;;;;;;56.58;35.55;;;;;;;;;;5133752;27;20110;-65
2022/01/24 10:34:06;;;;;;;47.63;32.75;;;;;;;;;;5110702;27;20407;-66
2022/01/24 10:36:39;;;;;;;56.28;34.83;;;;;;;;;;5130954;27;20043;-64
2022/01/24 10:39:12;;;;;;;53.80;33.70;;;;;;;;;;5132546;27;20039;-65
2022/01/24 10:44:26;;;;;;;55.50;34.03;;;;;;;;;;5130716;27;20035;-65
2022/01/24 10:46:52;;;;;;;51.20;31.88;;;;;;;;;;5115016;27;20106;-65
2022/01/24 10:49:30;;;;;;;50.38;33.20;;;;;;;;;;5133316;27;20055;-64
2022/01/24 10:52:08;;;;;;;49.15;31.05;;;;;;;;;;5132580;27;20046;-65
2022/01/24 10:54:34;;;;;;;48.45;30.83;;;;;;;;;;5134294;27;20122;-65
2022/01/24 10:57:00;;;;;;;48.67;32.42;;;;;;;;;;5134193;27;20119;-64
2022/01/24 10:59:26;;;;;;;45.08;30.50;;;;;;;;;;5134341;27;20064;-66
2022/01/24 11:01:54;;;;;;;46.30;30.65;;;;;;;;;;5133062;27;20078;-64
2022/01/24 11:04:22;;;;;;;50.03;31.77;;;;;;;;;;5133041;27;20035;-65
2022/01/24 11:06:49;;;;;;;51.50;32.38;;;;;;;;;;5133145;27;20079;-64
2022/01/24 11:09:19;;;;;;;51.08;31.83;;;;;;;;;;5133319;27;20047;-64
2022/01/24 11:11:46;;;;;;;49.42;32.20;;;;;;;;;;5114699;27;20592;-64
2022/01/24 11:14:16;;;;;;;54.70;32.55;;;;;;;;;;5133277;27;20039;-65
2022/01/24 11:16:42;;;;;;;44.67;29.48;;;;;;;;;;5133736;27;20054;-66
2022/01/24 11:19:15;;;;;;;43.47;29.20;;;;;;;;;;5133900;27;20249;-63
2022/01/24 11:21:43;;;;;;;50.08;30.58;;;;;;;;;;5132314;27;20046;-64
2022/01/24 11:24:10;;;;;;;49.72;30.42;;;;;;;;;;5114599;27;20084;-64
2022/01/24 11:26:36;;;;;;;45.50;29.98;;;;;;;;;;5114757;27;20051;-64
2022/01/24 11:29:03;;;;;;;41.33;28.73;;;;;;;;;;5133186;27;20043;-65
2022/01/24 11:31:40;;;;;;;40.30;28.52;;;;;;;;;;5132662;27;20393;-63
2022/01/24 11:34:12;;;;;;;38.83;28.17;;;;;;;;;;5133068;27;20070;-65
2022/01/24 11:36:39;;;;;;;39.83;28.27;;;;;;;;;;5128553;27;20130;-65
2022/01/24 11:39:05;;;;;;;38.78;27.55;;;;;;;;;;5132504;27;20035;-65
2022/01/24 11:41:33;;;;;;;38.20;27.23;;;;;;;;;;5132339;27;20043;-65
2022/01/24 11:44:09;;;;;;;38.50;27.80;;;;;;;;;;5132790;27;20035;-64
2022/01/24 11:46:48;;;;;;;36.00;26.58;;;;;;;;;;5132968;27;20035;-64
2022/01/24 11:49:18;;;;;;;37.15;26.98;;;;;;;;;;5132744;27;20039;-66
2022/01/24 11:51:46;;;;;;;35.22;25.83;;;;;;;;;;5131717;27;20122;-65
2022/01/24 11:54:30;;;;;;;34.30;26.67;;;;;;;;;;5129917;27;20031;-64
2022/01/24 11:57:15;;;;;;;36.15;26.70;;;;;;;;;;5133942;27;20539;-64
2022/01/24 11:59:41;;;;;;;35.90;25.70;;;;;;;;;;5132857;27;20080;-66
2022/01/24 12:02:08;;;;;;;40.22;28.30;;;;;;;;;;5131737;27;20031;-65
2022/01/24 12:04:54;;;;;;;39.33;27.23;;;;;;;;;;5132085;27;20043;-66
2022/01/24 12:07:20;;;;;;;40.72;26.95;;;;;;;;;;5132330;28;20039;-65
2022/01/24 12:09:46;;;;;;;38.53;26.38;;;;;;;;;;5132370;28;20050;-66
2022/01/24 12:12:38;;;;;;;36.67;25.88;;;;;;;;;;5113766;28;20424;-67
2022/01/24 12:15:07;;;;;;;36.35;27.17;;;;;;;;;;5132642;28;20255;-65
2022/01/24 12:17:51;;;;;;;36.22;26.83;;;;;;;;;;5132416;28;20031;-66
2022/01/24 12:20:32;;;;;;;37.28;27.42;;;;;;;;;;5132496;28;20039;-66
2022/01/24 12:23:16;;;;;;;42.58;28.75;;;;;;;;;;5132200;28;20391;-66
2022/01/24 12:25:57;;;;;;;45.03;31.45;;;;;;;;;;5122973;28;20079;-66
2022/01/24 12:28:27;;;;;;;44.38;30.42;;;;;;;;;;5129132;28;20100;-66
2022/01/24 12:30:59;;;;;;;62.90;36.63;;;;;;;;;;5128542;28;20038;-66
2022/01/24 12:33:36;;;;;;;63.30;39.75;;;;;;;;;;5132137;28;20190;-68
2022/01/24 12:36:03;;;;;;;66.43;40.08;;;;;;;;;;5131533;28;20035;-66
2022/01/24 12:38:51;;;;;;;50.55;34.55;;;;;;;;;;5132104;28;20042;-66
2022/01/24 12:41:24;;;;;;;49.28;33.08;;;;;;;;;;5133342;28;20035;-65
2022/01/24 12:43:55;;;;;;;46.05;31.75;;;;;;;;;;5114416;28;20043;-64
2022/01/24 12:46:24;;;;;;;38.63;29.42;;;;;;;;;;5135811;27;20122;-64
2022/01/24 12:48:50;;;;;;;46.97;33.63;;;;;;;;;;5135509;27;20039;-64
2022/01/24 12:51:21;;;;;;;55.22;36.53;;;;;;;;;;5116811;27;20594;-65
2022/01/24 12:53:47;;;;;;;42.15;31.40;;;;;;;;;;5135683;27;20099;-64
2022/01/24 12:56:14;;;;;;;43.45;30.92;;;;;;;;;;5135174;27;20039;-64
2022/01/24 12:58:45;;;;;;;42.53;31.77;;;;;;;;;;5135574;27;20056;-70
2022/01/24 13:01:17;;;;;;;51.60;35.80;;;;;;;;;;5115138;27;20070;-65
2022/01/24 13:03:47;;;;;;;44.92;32.08;;;;;;;;;;5135453;27;20053;-65
2022/01/24 13:06:14;;;;;;;43.67;32.67;;;;;;;;;;5135710;27;20050;-65
2022/01/24 13:08:51;;;;;;;39.72;29.63;;;;;;;;;;5135425;27;20396;-64
2022/01/24 13:11:17;;;;;;;40.17;29.52;;;;;;;;;;5135904;27;20470;-64
2022/01/24 13:14:00;;;;;;;48.25;35.75;;;;;;;;;;5135743;27;20492;-65
2022/01/24 13:25:16;;;;;;;37.10;26.45;;;;;;;;;;5128602;27;20602;-66
2022/01/24 13:27:44;;;;;;;32.13;24.73;;;;;;;;;;5134572;27;20053;-64
2022/01/24 13:30:23;;;;;;;32.63;25.35;;;;;;;;;;5132415;27;20035;-65
2022/01/24 13:32:50;;;;;;;34.92;25.58;;;;;;;;;;5132113;27;20042;-64
2022/01/24 13:35:20;;;;;;;30.95;23.98;;;;;;;;;;5114497;27;20419;-66
2022/01/24 13:37:46;;;;;;;34.30;25.25;;;;;;;;;;5111395;28;20492;-65
2022/01/24 13:40:13;;;;;;;35.13;27.40;;;;;;;;;;5127233;27;20137;-65
2022/01/24 13:42:39;;;;;;;31.67;24.33;;;;;;;;;;5134574;27;20054;-63
2022/01/24 13:45:06;;;;;;;34.58;24.98;;;;;;;;;;5136519;27;20039;-65
2022/01/24 13:47:32;;;;;;;39.25;28.02;;;;;;;;;;5134671;27;20035;-64
2022/01/24 13:49:58;;;;;;;57.63;40.40;;;;;;;;;;5134563;27;20095;-67
2022/01/24 13:52:26;;;;;;;48.90;35.30;;;;;;;;;;5134066;27;20472;-64
2022/01/24 13:54:52;;;;;;;34.00;25.90;;;;;;;;;;5134924;27;20118;-64
2022/01/24 13:57:19;;;;;;;33.85;25.80;;;;;;;;;;5133424;27;20488;-64
2022/01/24 13:59:45;;;;;;;31.95;25.20;;;;;;;;;;5134814;27;20063;-64
2022/01/24 14:02:16;;;;;;;33.92;25.80;;;;;;;;;;5134794;27;20426;-64
2022/01/24 14:04:42;;;;;;;33.88;25.17;;;;;;;;;;5134789;27;20050;-64
2022/01/24 14:07:10;;;;;;;34.25;25.38;;;;;;;;;;5134398;27;20081;-64
2022/01/24 14:09:44;;;;;;;32.88;24.73;;;;;;;;;;5134441;27;20035;-64
2022/01/24 14:12:22;;;;;;;35.20;25.55;;;;;;;;;;5134470;27;20039;-65
2022/01/24 14:15:00;;;;;;;39.38;29.98;;;;;;;;;;5134423;27;20553;-65
2022/01/24 14:19:54;;;;;;;32.10;24.38;;;;;;;;;;5124403;27;20108;-65
2022/01/24 14:22:21;;;;;;;35.63;26.60;;;;;;;;;;5131303;27;20424;-64
2022/01/24 14:24:49;;;;;;;34.63;25.40;;;;;;;;;;5132952;27;20038;-66
2022/01/24 14:27:35;;;;;;;36.50;25.83;;;;;;;;;;5120951;27;20027;-66
2022/01/24 14:30:07;;;;;;;36.90;25.83;;;;;;;;;;5128583;27;20118;-63
2022/01/24 14:32:38;;;;;;;34.15;24.67;;;;;;;;;;5129813;27;20035;-65
2022/01/24 14:35:06;;;;;;;35.60;25.63;;;;;;;;;;5129020;27;20388;-64
2022/01/24 14:37:45;;;;;;;36.35;26.40;;;;;;;;;;5127265;27;20036;-64
2022/01/24 14:40:31;;;;;;;36.88;26.27;;;;;;;;;;5131292;27;20035;-65
2022/01/24 14:44:53;;;;;;;39.17;26.95;;;;;;;;;;5131152;27;20046;-64
2022/01/24 14:45:44;;;;;;;37.03;25.35;;;;;;;;;;5098066;27;20036;-65
2022/01/24 14:48:10;;;;;;;38.75;26.90;;;;;;;;;;5128982;27;20078;-65
2022/01/24 14:50:36;;;;;;;39.50;29.30;;;;;;;;;;5119492;27;20043;-66
2022/01/24 14:53:07;;;;;;;38.08;27.45;;;;;;;;;;5122969;27;20491;-66
2022/01/24 14:55:33;;;;;;;39.97;27.50;;;;;;;;;;5129248;27;20070;-66
2022/01/24 14:58:00;;;;;;;43.42;29.65;;;;;;;;;;5112719;27;20114;-67
2022/01/24 15:00:27;;;;;;;42.75;29.45;;;;;;;;;;5083852;27;20070;-65
2022/01/24 15:02:58;;;;;;;59.42;37.85;;;;;;;;;;5129061;27;20122;-66
2022/01/24 15:05:25;;;;;;;44.72;30.75;;;;;;;;;;5104462;28;20062;-64
2022/01/24 15:07:52;;;;;;;40.80;28.70;;;;;;;;;;5124648;27;20430;-65
2022/01/24 15:10:18;;;;;;;41.17;27.70;;;;;;;;;;5127351;27;20035;-64
2022/01/24 15:12:50;;;;;;;41.55;29.25;;;;;;;;;;5116647;27;20487;-65
2022/01/24 15:15:19;;;;;;;39.88;28.17;;;;;;;;;;5118552;27;20490;-65
2022/01/24 15:26:01;;;;;;;43.42;29.08;;;;;;;;;;5119883;27;20081;-66
2022/01/24 15:28:27;;;;;;;44.08;29.30;;;;;;;;;;5123222;27;20069;-65
2022/01/24 15:30:56;;;;;;;46.28;30.45;;;;;;;;;;5121559;27;20415;-65
2022/01/24 15:33:23;;;;;;;43.78;28.85;;;;;;;;;;5126387;27;20370;-65
2022/01/24 15:35:50;;;;;;;43.72;30.48;;;;;;;;;;5125025;27;20047;-66
2022/01/24 15:38:17;;;;;;;43.00;28.48;;;;;;;;;;5120495;27;20478;-66
2022/01/24 15:40:43;;;;;;;45.95;29.60;;;;;;;;;;5118921;27;20109;-65
2022/01/24 15:43:37;;;;;;;44.80;30.05;;;;;;;;;;5123376;27;20035;-64
2022/01/24 15:48:25;;;;;;;43.85;28.55;;;;;;;;;;5118441;27;20035;-65
2022/01/24 15:50:51;;;;;;;42.92;29.00;;;;;;;;;;5120600;27;20046;-64
2022/01/24 15:53:17;;;;;;;52.22;32.33;;;;;;;;;;5127262;27;20476;-64
2022/01/24 15:58:48;;;;;;;46.83;30.85;;;;;;;;;;5022669;28;20049;-66
2022/01/24 16:01:15;;;;;;;49.67;32.72;;;;;;;;;;5026090;28;20037;-66
2022/01/24 16:03:41;;;;;;;47.10;30.38;;;;;;;;;;5070311;27;20047;-64
2022/01/24 16:06:07;;;;;;;46.45;30.67;;;;;;;;;;5119875;27;20041;-65
2022/01/24 16:08:33;;;;;;;48.45;30.88;;;;;;;;;;5107825;28;20476;-64
2022/01/24 16:10:59;;;;;;;42.10;28.63;;;;;;;;;;5126330;28;20038;-65
2022/01/24 16:13:26;;;;;;;43.33;29.38;;;;;;;;;;5128188;28;20118;-64
2022/01/24 16:15:52;;;;;;;45.05;30.13;;;;;;;;;;5124030;28;20051;-64
2022/01/24 16:18:20;;;;;;;46.60;30.50;;;;;;;;;;5118619;28;20067;-64
2022/01/24 16:25:44;;;;;;;43.65;30.02;;;;;;;;;;5117583;27;20533;-64
2022/01/24 16:28:15;;;;;;;46.03;30.27;;;;;;;;;;5126784;27;20126;-64